Overview Statistics Trail Chart Weather Telemetry Raw packets
 

This is the latest recevied weather packets stored in our database for station/object IR9AK-10. If no packets are shown the sender has not sent any weather packets the latest 10 day(s).

<< 31 32 33 34 35 36 37 >>
Time Temp. Humidity Pressure Rain* Wind** Luminosity Snow
1788115678 42.22° C 40% 1059.2 hPa - - - -
1788115079 42.78° C 39% 1059.2 hPa - - - -
1788114480 42.78° C 39% 1059 hPa - - - -
1788113881 42.78° C 39% 1059 hPa - - - -
1788113281 42.78° C 39% 1058.8 hPa - - - -
1788112683 43.33° C 39% 1058.7 hPa - - - -
1788112084 42.78° C 39% 1058.6 hPa - - - -
1788111485 43.33° C 39% 1058.5 hPa - - - -
1788110885 43.33° C 38% 1058.4 hPa - - - -
1788110286 43.89° C 38% 1058.3 hPa - - - -
1788109687 44.44° C 37% 1058.2 hPa - - - -
1788109088 44.44° C 37% 1058.2 hPa - - - -
1788108489 44.44° C 37% 1058.1 hPa - - - -
1788107890 44.44° C 37% 1058.3 hPa - - - -
1788107291 44.44° C 37% 1058.2 hPa - - - -
1788106691 44.44° C 37% 1058.2 hPa - - - -
1788106093 45° C 37% 1058.1 hPa - - - -
1788105494 45° C 37% 1058 hPa - - - -
1788104895 45° C 36% 1058 hPa - - - -
1788104296 45.56° C 35% 1058 hPa - - - -
1788103697 45.56° C 35% 1057.9 hPa - - - -
1788103098 46.11° C 32% 1057.7 hPa - - - -
1788102498 47.22° C 33% 1057.5 hPa - - - -
1788101898 48.89° C 29% 1057.5 hPa - - - -
1788101299 49.44° C 27% 1057.4 hPa - - - -

* Rain since midnight (hover to see other rain measurements)
** Current wind speed in m/s (hover to see current wind gust speed)